sensor_id;sensor_type;location;lat;lon;timestamp;P1;durP1;ratioP1;P2;durP2;ratioP2
52858;SDS011;38721;53.098;6.596;2023-11-18T00:01:21;73.63;;;38.28;;
52858;SDS011;38721;53.098;6.596;2023-11-18T00:03:47;74.60;;;39.97;;
52858;SDS011;38721;53.098;6.596;2023-11-18T00:06:12;74.50;;;39.63;;
52858;SDS011;38721;53.098;6.596;2023-11-18T00:08:38;85.13;;;42.42;;
52858;SDS011;38721;53.098;6.596;2023-11-18T00:11:04;85.85;;;43.13;;
52858;SDS011;38721;53.098;6.596;2023-11-18T00:13:30;89.03;;;43.28;;
52858;SDS011;38721;53.098;6.596;2023-11-18T00:15:56;85.38;;;42.90;;
52858;SDS011;38721;53.098;6.596;2023-11-18T00:18:23;74.45;;;40.83;;
52858;SDS011;38721;53.098;6.596;2023-11-18T00:20:48;78.57;;;42.13;;
52858;SDS011;38721;53.098;6.596;2023-11-18T00:23:16;85.18;;;42.08;;
52858;SDS011;38721;53.098;6.596;2023-11-18T00:25:42;75.32;;;42.08;;
52858;SDS011;38721;53.098;6.596;2023-11-18T00:28:10;99.07;;;42.92;;
52858;SDS011;38721;53.098;6.596;2023-11-18T00:30:36;90.97;;;44.10;;
52858;SDS011;38721;53.098;6.596;2023-11-18T00:33:02;80.53;;;40.30;;
52858;SDS011;38721;53.098;6.596;2023-11-18T00:35:28;73.72;;;40.88;;
52858;SDS011;38721;53.098;6.596;2023-11-18T00:37:57;77.68;;;42.17;;
52858;SDS011;38721;53.098;6.596;2023-11-18T00:40:24;87.05;;;43.53;;
52858;SDS011;38721;53.098;6.596;2023-11-18T00:42:50;86.20;;;43.08;;
52858;SDS011;38721;53.098;6.596;2023-11-18T00:45:15;90.07;;;42.17;;
52858;SDS011;38721;53.098;6.596;2023-11-18T00:47:43;95.32;;;44.95;;
52858;SDS011;38721;53.098;6.596;2023-11-18T00:50:09;83.72;;;41.83;;
52858;SDS011;38721;53.098;6.596;2023-11-18T00:52:34;86.35;;;42.58;;
52858;SDS011;38721;53.098;6.596;2023-11-18T00:55:00;103.95;;;46.67;;
52858;SDS011;38721;53.098;6.596;2023-11-18T00:57:26;84.95;;;42.05;;
52858;SDS011;38721;53.098;6.596;2023-11-18T00:59:52;103.72;;;45.33;;
52858;SDS011;38721;53.098;6.596;2023-11-18T01:02:18;139.68;;;50.83;;
52858;SDS011;38721;53.098;6.596;2023-11-18T01:04:44;82.15;;;42.15;;
52858;SDS011;38721;53.098;6.596;2023-11-18T01:07:13;94.57;;;43.83;;
52858;SDS011;38721;53.098;6.596;2023-11-18T01:09:39;89.63;;;42.28;;
52858;SDS011;38721;53.098;6.596;2023-11-18T01:12:05;129.02;;;50.40;;
52858;SDS011;38721;53.098;6.596;2023-11-18T01:14:38;105.13;;;45.88;;
52858;SDS011;38721;53.098;6.596;2023-11-18T01:17:07;104.55;;;44.35;;
52858;SDS011;38721;53.098;6.596;2023-11-18T01:19:36;94.88;;;43.70;;
52858;SDS011;38721;53.098;6.596;2023-11-18T01:22:03;100.60;;;45.70;;
52858;SDS011;38721;53.098;6.596;2023-11-18T01:24:33;94.18;;;43.30;;
52858;SDS011;38721;53.098;6.596;2023-11-18T01:26:59;95.13;;;43.10;;
52858;SDS011;38721;53.098;6.596;2023-11-18T01:29:25;107.18;;;46.72;;
52858;SDS011;38721;53.098;6.596;2023-11-18T01:31:51;104.53;;;44.45;;
52858;SDS011;38721;53.098;6.596;2023-11-18T01:34:18;101.05;;;44.53;;
52858;SDS011;38721;53.098;6.596;2023-11-18T01:36:46;123.40;;;47.33;;
52858;SDS011;38721;53.098;6.596;2023-11-18T01:39:14;113.32;;;45.85;;
52858;SDS011;38721;53.098;6.596;2023-11-18T01:41:41;117.10;;;46.83;;
52858;SDS011;38721;53.098;6.596;2023-11-18T01:44:06;128.15;;;48.88;;
52858;SDS011;38721;53.098;6.596;2023-11-18T01:46:33;111.53;;;46.55;;
52858;SDS011;38721;53.098;6.596;2023-11-18T01:49:01;165.45;;;51.50;;
52858;SDS011;38721;53.098;6.596;2023-11-18T01:51:29;119.00;;;46.97;;
52858;SDS011;38721;53.098;6.596;2023-11-18T01:53:55;109.28;;;44.25;;
52858;SDS011;38721;53.098;6.596;2023-11-18T01:56:24;145.85;;;52.08;;
52858;SDS011;38721;53.098;6.596;2023-11-18T01:58:52;111.50;;;46.20;;
52858;SDS011;38721;53.098;6.596;2023-11-18T02:01:18;111.85;;;45.65;;
52858;SDS011;38721;53.098;6.596;2023-11-18T02:03:44;132.55;;;48.22;;
52858;SDS011;38721;53.098;6.596;2023-11-18T02:06:10;128.55;;;48.72;;
52858;SDS011;38721;53.098;6.596;2023-11-18T02:08:35;130.48;;;48.15;;
52858;SDS011;38721;53.098;6.596;2023-11-18T02:13:40;180.13;;;59.63;;
52858;SDS011;38721;53.098;6.596;2023-11-18T02:16:10;166.27;;;51.78;;
52858;SDS011;38721;53.098;6.596;2023-11-18T02:18:36;144.10;;;49.80;;
52858;SDS011;38721;53.098;6.596;2023-11-18T02:21:06;165.00;;;52.72;;
52858;SDS011;38721;53.098;6.596;2023-11-18T02:23:34;226.55;;;56.75;;
52858;SDS011;38721;53.098;6.596;2023-11-18T02:25:59;208.95;;;56.13;;
52858;SDS011;38721;53.098;6.596;2023-11-18T02:28:26;232.65;;;56.17;;
52858;SDS011;38721;53.098;6.596;2023-11-18T02:31:03;306.75;;;62.92;;
52858;SDS011;38721;53.098;6.596;2023-11-18T02:33:35;172.32;;;51.95;;
52858;SDS011;38721;53.098;6.596;2023-11-18T02:39:00;186.68;;;52.35;;
52858;SDS011;38721;53.098;6.596;2023-11-18T02:41:32;186.73;;;54.35;;
52858;SDS011;38721;53.098;6.596;2023-11-18T02:44:00;466.35;;;74.03;;
52858;SDS011;38721;53.098;6.596;2023-11-18T02:49:04;455.30;;;78.72;;
52858;SDS011;38721;53.098;6.596;2023-11-18T02:51:33;361.02;;;62.28;;
52858;SDS011;38721;53.098;6.596;2023-11-18T02:54:04;300.83;;;59.13;;
52858;SDS011;38721;53.098;6.596;2023-11-18T02:56:36;175.55;;;52.60;;
52858;SDS011;38721;53.098;6.596;2023-11-18T02:59:05;305.63;;;59.35;;
52858;SDS011;38721;53.098;6.596;2023-11-18T03:01:34;309.38;;;60.67;;
52858;SDS011;38721;53.098;6.596;2023-11-18T03:04:00;252.40;;;55.25;;
52858;SDS011;38721;53.098;6.596;2023-11-18T03:06:26;410.13;;;69.65;;
52858;SDS011;38721;53.098;6.596;2023-11-18T03:08:52;452.88;;;72.65;;
52858;SDS011;38721;53.098;6.596;2023-11-18T03:11:18;492.77;;;77.07;;
52858;SDS011;38721;53.098;6.596;2023-11-18T03:13:44;300.42;;;58.70;;
52858;SDS011;38721;53.098;6.596;2023-11-18T03:16:13;336.40;;;58.15;;
52858;SDS011;38721;53.098;6.596;2023-11-18T03:18:39;394.52;;;68.00;;
52858;SDS011;38721;53.098;6.596;2023-11-18T03:21:11;494.20;;;71.80;;
52858;SDS011;38721;53.098;6.596;2023-11-18T03:23:38;430.85;;;68.00;;
52858;SDS011;38721;53.098;6.596;2023-11-18T03:26:04;423.55;;;71.53;;
52858;SDS011;38721;53.098;6.596;2023-11-18T03:28:30;465.95;;;70.85;;
52858;SDS011;38721;53.098;6.596;2023-11-18T03:30:56;445.48;;;69.88;;
52858;SDS011;38721;53.098;6.596;2023-11-18T03:33:22;307.65;;;55.15;;
52858;SDS011;38721;53.098;6.596;2023-11-18T03:35:48;543.83;;;77.72;;
52858;SDS011;38721;53.098;6.596;2023-11-18T03:38:14;574.53;;;82.10;;
52858;SDS011;38721;53.098;6.596;2023-11-18T03:40:42;450.23;;;72.15;;
52858;SDS011;38721;53.098;6.596;2023-11-18T03:43:10;645.17;;;93.18;;
52858;SDS011;38721;53.098;6.596;2023-11-18T03:45:38;621.40;;;90.97;;
52858;SDS011;38721;53.098;6.596;2023-11-18T03:48:07;349.40;;;62.42;;
52858;SDS011;38721;53.098;6.596;2023-11-18T03:50:33;563.70;;;85.82;;
52858;SDS011;38721;53.098;6.596;2023-11-18T03:52:59;330.77;;;60.88;;
52858;SDS011;38721;53.098;6.596;2023-11-18T03:55:26;514.10;;;76.35;;
52858;SDS011;38721;53.098;6.596;2023-11-18T03:57:52;311.58;;;58.80;;
52858;SDS011;38721;53.098;6.596;2023-11-18T04:00:18;260.25;;;54.67;;
52858;SDS011;38721;53.098;6.596;2023-11-18T04:02:45;515.65;;;81.38;;
52858;SDS011;38721;53.098;6.596;2023-11-18T04:05:12;315.45;;;61.08;;
52858;SDS011;38721;53.098;6.596;2023-11-18T04:07:38;247.35;;;55.78;;
52858;SDS011;38721;53.098;6.596;2023-11-18T04:10:07;401.38;;;66.80;;
52858;SDS011;38721;53.098;6.596;2023-11-18T04:12:36;339.83;;;66.57;;
52858;SDS011;38721;53.098;6.596;2023-11-18T04:15:03;348.73;;;65.40;;
52858;SDS011;38721;53.098;6.596;2023-11-18T04:17:30;252.00;;;56.33;;
52858;SDS011;38721;53.098;6.596;2023-11-18T04:19:56;436.40;;;69.57;;
52858;SDS011;38721;53.098;6.596;2023-11-18T04:22:22;290.15;;;61.85;;
52858;SDS011;38721;53.098;6.596;2023-11-18T04:24:48;503.80;;;79.50;;
52858;SDS011;38721;53.098;6.596;2023-11-18T04:27:13;373.92;;;70.72;;
52858;SDS011;38721;53.098;6.596;2023-11-18T04:29:39;165.40;;;49.17;;
52858;SDS011;38721;53.098;6.596;2023-11-18T04:32:07;293.60;;;58.05;;
52858;SDS011;38721;53.098;6.596;2023-11-18T04:34:36;393.67;;;70.85;;
52858;SDS011;38721;53.098;6.596;2023-11-18T04:37:03;201.18;;;53.45;;
52858;SDS011;38721;53.098;6.596;2023-11-18T04:39:31;269.67;;;56.22;;
52858;SDS011;38721;53.098;6.596;2023-11-18T04:41:57;230.32;;;58.08;;
52858;SDS011;38721;53.098;6.596;2023-11-18T04:44:23;278.60;;;61.00;;
52858;SDS011;38721;53.098;6.596;2023-11-18T04:46:48;372.70;;;70.80;;
52858;SDS011;38721;53.098;6.596;2023-11-18T04:49:15;243.35;;;58.05;;
52858;SDS011;38721;53.098;6.596;2023-11-18T04:51:40;290.13;;;62.40;;
52858;SDS011;38721;53.098;6.596;2023-11-18T04:54:06;328.30;;;68.18;;
52858;SDS011;38721;53.098;6.596;2023-11-18T04:56:33;236.48;;;57.80;;
52858;SDS011;38721;53.098;6.596;2023-11-18T04:59:03;431.40;;;76.10;;
52858;SDS011;38721;53.098;6.596;2023-11-18T05:01:30;261.52;;;62.60;;
52858;SDS011;38721;53.098;6.596;2023-11-18T05:03:56;258.88;;;56.20;;
52858;SDS011;38721;53.098;6.596;2023-11-18T05:06:22;336.48;;;65.57;;
52858;SDS011;38721;53.098;6.596;2023-11-18T05:08:48;199.57;;;53.30;;
52858;SDS011;38721;53.098;6.596;2023-11-18T05:11:14;385.95;;;71.30;;
52858;SDS011;38721;53.098;6.596;2023-11-18T05:13:40;297.77;;;60.50;;
52858;SDS011;38721;53.098;6.596;2023-11-18T05:16:06;277.00;;;59.80;;
52858;SDS011;38721;53.098;6.596;2023-11-18T05:18:32;342.02;;;66.30;;
52858;SDS011;38721;53.098;6.596;2023-11-18T05:21:01;254.27;;;55.15;;
52858;SDS011;38721;53.098;6.596;2023-11-18T05:23:28;198.48;;;55.20;;
52858;SDS011;38721;53.098;6.596;2023-11-18T05:25:57;475.58;;;80.43;;
52858;SDS011;38721;53.098;6.596;2023-11-18T05:28:26;289.75;;;58.70;;
52858;SDS011;38721;53.098;6.596;2023-11-18T05:30:51;427.17;;;73.63;;
52858;SDS011;38721;53.098;6.596;2023-11-18T05:33:18;241.95;;;56.53;;
52858;SDS011;38721;53.098;6.596;2023-11-18T05:35:44;444.05;;;74.43;;
52858;SDS011;38721;53.098;6.596;2023-11-18T05:38:16;261.45;;;57.92;;
52858;SDS011;38721;53.098;6.596;2023-11-18T05:40:51;299.35;;;59.35;;
52858;SDS011;38721;53.098;6.596;2023-11-18T05:43:26;304.67;;;59.53;;
52858;SDS011;38721;53.098;6.596;2023-11-18T05:45:58;405.02;;;69.38;;
52858;SDS011;38721;53.098;6.596;2023-11-18T05:48:45;354.13;;;69.47;;
52858;SDS011;38721;53.098;6.596;2023-11-18T05:51:12;354.23;;;67.75;;
52858;SDS011;38721;53.098;6.596;2023-11-18T05:53:42;263.60;;;56.45;;
52858;SDS011;38721;53.098;6.596;2023-11-18T05:56:10;208.82;;;53.28;;
52858;SDS011;38721;53.098;6.596;2023-11-18T05:58:36;325.25;;;61.50;;
52858;SDS011;38721;53.098;6.596;2023-11-18T06:01:03;230.70;;;60.17;;
52858;SDS011;38721;53.098;6.596;2023-11-18T06:03:30;361.42;;;67.35;;
52858;SDS011;38721;53.098;6.596;2023-11-18T06:05:56;214.07;;;53.05;;
52858;SDS011;38721;53.098;6.596;2023-11-18T06:08:21;200.80;;;51.28;;
52858;SDS011;38721;53.098;6.596;2023-11-18T06:10:48;445.02;;;73.72;;
52858;SDS011;38721;53.098;6.596;2023-11-18T06:13:14;526.33;;;80.35;;
52858;SDS011;38721;53.098;6.596;2023-11-18T06:15:41;299.52;;;58.35;;
52858;SDS011;38721;53.098;6.596;2023-11-18T06:18:08;468.73;;;75.95;;
52858;SDS011;38721;53.098;6.596;2023-11-18T06:20:37;575.60;;;80.53;;
52858;SDS011;38721;53.098;6.596;2023-11-18T06:23:03;293.17;;;58.67;;
52858;SDS011;38721;53.098;6.596;2023-11-18T06:25:29;330.90;;;60.92;;
52858;SDS011;38721;53.098;6.596;2023-11-18T06:27:56;363.05;;;63.10;;
52858;SDS011;38721;53.098;6.596;2023-11-18T06:30:23;416.75;;;72.95;;
52858;SDS011;38721;53.098;6.596;2023-11-18T06:32:49;561.67;;;87.47;;
52858;SDS011;38721;53.098;6.596;2023-11-18T06:35:14;433.20;;;73.18;;
52858;SDS011;38721;53.098;6.596;2023-11-18T06:37:40;472.92;;;77.90;;
52858;SDS011;38721;53.098;6.596;2023-11-18T06:40:08;451.80;;;76.40;;
52858;SDS011;38721;53.098;6.596;2023-11-18T06:42:44;393.55;;;70.85;;
52858;SDS011;38721;53.098;6.596;2023-11-18T06:45:14;425.05;;;72.30;;
52858;SDS011;38721;53.098;6.596;2023-11-18T06:47:42;354.35;;;65.97;;
52858;SDS011;38721;53.098;6.596;2023-11-18T06:50:09;369.35;;;70.15;;
52858;SDS011;38721;53.098;6.596;2023-11-18T06:52:39;343.77;;;73.35;;
52858;SDS011;38721;53.098;6.596;2023-11-18T06:55:09;345.60;;;69.97;;
52858;SDS011;38721;53.098;6.596;2023-11-18T06:57:36;255.55;;;61.47;;
52858;SDS011;38721;53.098;6.596;2023-11-18T07:00:03;397.38;;;73.53;;
52858;SDS011;38721;53.098;6.596;2023-11-18T07:02:33;396.00;;;75.25;;
52858;SDS011;38721;53.098;6.596;2023-11-18T07:04:59;300.45;;;63.58;;
52858;SDS011;38721;53.098;6.596;2023-11-18T07:07:25;253.82;;;59.83;;
52858;SDS011;38721;53.098;6.596;2023-11-18T07:09:51;328.60;;;65.68;;
52858;SDS011;38721;53.098;6.596;2023-11-18T07:12:17;304.27;;;67.00;;
52858;SDS011;38721;53.098;6.596;2023-11-18T07:14:44;335.95;;;66.63;;
52858;SDS011;38721;53.098;6.596;2023-11-18T07:17:13;232.02;;;56.88;;
52858;SDS011;38721;53.098;6.596;2023-11-18T07:19:38;258.15;;;60.25;;
52858;SDS011;38721;53.098;6.596;2023-11-18T07:22:05;320.88;;;67.93;;
52858;SDS011;38721;53.098;6.596;2023-11-18T07:24:32;321.20;;;64.53;;
52858;SDS011;38721;53.098;6.596;2023-11-18T07:26:58;223.23;;;57.08;;
52858;SDS011;38721;53.098;6.596;2023-11-18T07:29:25;225.75;;;56.67;;
52858;SDS011;38721;53.098;6.596;2023-11-18T07:31:52;329.33;;;66.35;;
52858;SDS011;38721;53.098;6.596;2023-11-18T07:34:21;268.63;;;58.78;;
52858;SDS011;38721;53.098;6.596;2023-11-18T07:36:48;205.77;;;53.22;;
52858;SDS011;38721;53.098;6.596;2023-11-18T07:39:15;237.95;;;58.05;;
52858;SDS011;38721;53.098;6.596;2023-11-18T07:41:41;293.38;;;59.90;;
52858;SDS011;38721;53.098;6.596;2023-11-18T07:44:07;350.60;;;67.90;;
52858;SDS011;38721;53.098;6.596;2023-11-18T07:46:35;365.75;;;68.07;;
52858;SDS011;38721;53.098;6.596;2023-11-18T07:49:03;393.48;;;68.53;;
52858;SDS011;38721;53.098;6.596;2023-11-18T07:51:29;319.50;;;62.72;;
52858;SDS011;38721;53.098;6.596;2023-11-18T07:53:55;356.90;;;65.63;;
52858;SDS011;38721;53.098;6.596;2023-11-18T07:56:21;230.32;;;56.97;;
52858;SDS011;38721;53.098;6.596;2023-11-18T07:58:47;374.27;;;68.07;;
52858;SDS011;38721;53.098;6.596;2023-11-18T08:01:14;259.02;;;59.28;;
52858;SDS011;38721;53.098;6.596;2023-11-18T08:03:42;317.35;;;65.13;;
52858;SDS011;38721;53.098;6.596;2023-11-18T08:06:10;348.80;;;66.13;;
52858;SDS011;38721;53.098;6.596;2023-11-18T08:08:37;310.38;;;61.83;;
52858;SDS011;38721;53.098;6.596;2023-11-18T08:11:03;313.10;;;63.78;;
52858;SDS011;38721;53.098;6.596;2023-11-18T08:13:35;211.25;;;52.80;;
52858;SDS011;38721;53.098;6.596;2023-11-18T08:16:01;274.55;;;56.15;;
52858;SDS011;38721;53.098;6.596;2023-11-18T08:18:26;335.27;;;66.78;;
52858;SDS011;38721;53.098;6.596;2023-11-18T08:20:54;392.90;;;68.75;;
52858;SDS011;38721;53.098;6.596;2023-11-18T08:23:20;285.35;;;61.92;;
52858;SDS011;38721;53.098;6.596;2023-11-18T08:25:45;346.02;;;66.47;;
52858;SDS011;38721;53.098;6.596;2023-11-18T08:28:11;293.90;;;62.60;;
52858;SDS011;38721;53.098;6.596;2023-11-18T08:30:38;269.88;;;61.83;;
52858;SDS011;38721;53.098;6.596;2023-11-18T08:33:04;371.98;;;69.45;;
52858;SDS011;38721;53.098;6.596;2023-11-18T08:35:34;353.80;;;67.95;;
52858;SDS011;38721;53.098;6.596;2023-11-18T08:38:02;316.90;;;62.65;;
52858;SDS011;38721;53.098;6.596;2023-11-18T08:40:29;328.08;;;66.43;;
52858;SDS011;38721;53.098;6.596;2023-11-18T08:42:55;246.27;;;57.97;;
52858;SDS011;38721;53.098;6.596;2023-11-18T08:45:28;257.50;;;59.83;;
52858;SDS011;38721;53.098;6.596;2023-11-18T08:47:58;209.18;;;56.63;;
52858;SDS011;38721;53.098;6.596;2023-11-18T08:50:26;364.75;;;66.63;;
52858;SDS011;38721;53.098;6.596;2023-11-18T08:52:54;314.17;;;66.20;;
52858;SDS011;38721;53.098;6.596;2023-11-18T08:55:24;359.40;;;67.90;;
52858;SDS011;38721;53.098;6.596;2023-11-18T08:58:04;214.35;;;55.92;;
52858;SDS011;38721;53.098;6.596;2023-11-18T09:00:54;329.83;;;65.57;;
52858;SDS011;38721;53.098;6.596;2023-11-18T09:03:30;270.10;;;60.15;;
52858;SDS011;38721;53.098;6.596;2023-11-18T09:06:05;213.13;;;54.35;;
52858;SDS011;38721;53.098;6.596;2023-11-18T09:08:42;293.25;;;60.65;;
52858;SDS011;38721;53.098;6.596;2023-11-18T09:11:17;254.60;;;56.45;;
52858;SDS011;38721;53.098;6.596;2023-11-18T09:13:45;213.18;;;56.13;;
52858;SDS011;38721;53.098;6.596;2023-11-18T09:16:18;198.88;;;54.28;;
52858;SDS011;38721;53.098;6.596;2023-11-18T09:18:47;235.60;;;56.90;;
52858;SDS011;38721;53.098;6.596;2023-11-18T09:21:16;263.33;;;60.22;;
52858;SDS011;38721;53.098;6.596;2023-11-18T09:23:49;209.73;;;55.95;;
52858;SDS011;38721;53.098;6.596;2023-11-18T09:26:16;232.68;;;56.42;;
52858;SDS011;38721;53.098;6.596;2023-11-18T09:28:42;213.23;;;53.75;;
52858;SDS011;38721;53.098;6.596;2023-11-18T09:31:10;166.80;;;49.78;;
52858;SDS011;38721;53.098;6.596;2023-11-18T09:33:39;157.85;;;51.08;;
52858;SDS011;38721;53.098;6.596;2023-11-18T09:36:10;211.80;;;55.88;;
52858;SDS011;38721;53.098;6.596;2023-11-18T09:38:38;156.95;;;50.15;;
52858;SDS011;38721;53.098;6.596;2023-11-18T09:41:10;231.88;;;58.33;;
52858;SDS011;38721;53.098;6.596;2023-11-18T09:43:45;156.05;;;50.25;;
52858;SDS011;38721;53.098;6.596;2023-11-18T09:46:29;159.10;;;52.30;;
52858;SDS011;38721;53.098;6.596;2023-11-18T09:51:39;178.95;;;54.75;;
52858;SDS011;38721;53.098;6.596;2023-11-18T09:54:16;173.10;;;52.92;;
52858;SDS011;38721;53.098;6.596;2023-11-18T10:00:01;142.15;;;51.17;;
52858;SDS011;38721;53.098;6.596;2023-11-18T10:02:51;131.93;;;49.22;;
52858;SDS011;38721;53.098;6.596;2023-11-18T10:05:20;167.35;;;53.80;;
52858;SDS011;38721;53.098;6.596;2023-11-18T10:07:48;164.10;;;54.95;;
52858;SDS011;38721;53.098;6.596;2023-11-18T10:10:14;163.95;;;54.25;;
52858;SDS011;38721;53.098;6.596;2023-11-18T10:12:49;155.32;;;55.60;;
52858;SDS011;38721;53.098;6.596;2023-11-18T10:15:23;131.73;;;49.42;;
52858;SDS011;38721;53.098;6.596;2023-11-18T10:17:50;145.02;;;51.83;;
52858;SDS011;38721;53.098;6.596;2023-11-18T10:20:44;134.75;;;51.28;;
52858;SDS011;38721;53.098;6.596;2023-11-18T10:23:11;150.55;;;52.92;;
52858;SDS011;38721;53.098;6.596;2023-11-18T10:25:49;117.55;;;48.88;;
52858;SDS011;38721;53.098;6.596;2023-11-18T10:28:31;114.70;;;49.17;;
52858;SDS011;38721;53.098;6.596;2023-11-18T10:31:04;124.85;;;48.97;;
52858;SDS011;38721;53.098;6.596;2023-11-18T10:35:57;110.63;;;47.35;;
52858;SDS011;38721;53.098;6.596;2023-11-18T10:38:24;113.63;;;47.40;;
52858;SDS011;38721;53.098;6.596;2023-11-18T10:40:54;101.63;;;45.17;;
52858;SDS011;38721;53.098;6.596;2023-11-18T10:43:21;89.97;;;44.60;;
52858;SDS011;38721;53.098;6.596;2023-11-18T10:45:51;87.85;;;43.58;;
52858;SDS011;38721;53.098;6.596;2023-11-18T10:48:29;94.22;;;45.08;;
52858;SDS011;38721;53.098;6.596;2023-11-18T10:50:58;79.25;;;40.95;;
52858;SDS011;38721;53.098;6.596;2023-11-18T10:53:24;82.32;;;40.72;;
52858;SDS011;38721;53.098;6.596;2023-11-18T10:55:51;81.95;;;40.97;;
52858;SDS011;38721;53.098;6.596;2023-11-18T10:58:17;85.22;;;40.53;;
52858;SDS011;38721;53.098;6.596;2023-11-18T11:00:51;71.97;;;37.40;;
52858;SDS011;38721;53.098;6.596;2023-11-18T11:03:21;73.65;;;36.97;;
52858;SDS011;38721;53.098;6.596;2023-11-18T11:05:50;72.40;;;36.15;;
52858;SDS011;38721;53.098;6.596;2023-11-18T11:08:19;77.32;;;37.80;;
52858;SDS011;38721;53.098;6.596;2023-11-18T11:10:45;70.65;;;36.45;;
52858;SDS011;38721;53.098;6.596;2023-11-18T11:13:14;69.82;;;35.53;;
52858;SDS011;38721;53.098;6.596;2023-11-18T11:15:43;62.95;;;34.55;;
52858;SDS011;38721;53.098;6.596;2023-11-18T11:18:11;61.35;;;34.33;;
52858;SDS011;38721;53.098;6.596;2023-11-18T11:21:24;60.60;;;34.47;;
52858;SDS011;38721;53.098;6.596;2023-11-18T11:29:27;57.95;;;32.03;;
52858;SDS011;38721;53.098;6.596;2023-11-18T11:34:51;56.47;;;30.42;;
52858;SDS011;38721;53.098;6.596;2023-11-18T11:37:22;57.80;;;31.92;;
52858;SDS011;38721;53.098;6.596;2023-11-18T11:39:51;55.70;;;29.60;;
52858;SDS011;38721;53.098;6.596;2023-11-18T11:42:19;51.35;;;29.40;;
52858;SDS011;38721;53.098;6.596;2023-11-18T11:44:48;46.90;;;28.02;;
52858;SDS011;38721;53.098;6.596;2023-11-18T11:47:17;48.78;;;28.90;;
52858;SDS011;38721;53.098;6.596;2023-11-18T11:49:55;42.97;;;28.48;;
52858;SDS011;38721;53.098;6.596;2023-11-18T11:52:58;46.28;;;26.83;;
52858;SDS011;38721;53.098;6.596;2023-11-18T11:55:46;44.20;;;27.23;;
52858;SDS011;38721;53.098;6.596;2023-11-18T11:58:26;46.83;;;26.17;;
52858;SDS011;38721;53.098;6.596;2023-11-18T12:00:53;44.50;;;25.77;;
52858;SDS011;38721;53.098;6.596;2023-11-18T12:03:21;49.17;;;27.65;;
52858;SDS011;38721;53.098;6.596;2023-11-18T12:05:48;42.15;;;26.30;;
52858;SDS011;38721;53.098;6.596;2023-11-18T12:08:21;45.00;;;25.25;;
52858;SDS011;38721;53.098;6.596;2023-11-18T12:10:51;43.33;;;26.80;;
52858;SDS011;38721;53.098;6.596;2023-11-18T12:13:18;44.20;;;26.20;;
52858;SDS011;38721;53.098;6.596;2023-11-18T12:15:55;47.42;;;25.52;;
52858;SDS011;38721;53.098;6.596;2023-11-18T12:18:28;48.38;;;27.08;;
52858;SDS011;38721;53.098;6.596;2023-11-18T12:20:57;51.53;;;26.63;;
52858;SDS011;38721;53.098;6.596;2023-11-18T12:23:27;52.33;;;26.63;;
52858;SDS011;38721;53.098;6.596;2023-11-18T12:25:53;47.88;;;26.10;;
52858;SDS011;38721;53.098;6.596;2023-11-18T12:28:21;47.72;;;27.48;;
52858;SDS011;38721;53.098;6.596;2023-11-18T12:30:52;46.03;;;26.98;;
52858;SDS011;38721;53.098;6.596;2023-11-18T12:33:22;43.30;;;25.75;;
52858;SDS011;38721;53.098;6.596;2023-11-18T12:38:52;47.10;;;26.90;;
52858;SDS011;38721;53.098;6.596;2023-11-18T12:41:36;47.03;;;27.05;;
52858;SDS011;38721;53.098;6.596;2023-11-18T12:46:53;41.45;;;24.52;;
52858;SDS011;38721;53.098;6.596;2023-11-18T12:49:20;40.50;;;25.00;;
52858;SDS011;38721;53.098;6.596;2023-11-18T12:51:54;46.97;;;25.73;;
52858;SDS011;38721;53.098;6.596;2023-11-18T12:54:21;45.72;;;25.48;;
52858;SDS011;38721;53.098;6.596;2023-11-18T12:56:50;43.33;;;24.17;;
52858;SDS011;38721;53.098;6.596;2023-11-18T12:59:18;35.55;;;23.17;;
52858;SDS011;38721;53.098;6.596;2023-11-18T13:01:52;41.85;;;24.08;;
52858;SDS011;38721;53.098;6.596;2023-11-18T13:04:29;39.30;;;22.95;;
52858;SDS011;38721;53.098;6.596;2023-11-18T13:06:59;43.10;;;24.08;;
52858;SDS011;38721;53.098;6.596;2023-11-18T13:09:25;38.28;;;23.27;;
52858;SDS011;38721;53.098;6.596;2023-11-18T13:11:58;43.40;;;24.30;;
52858;SDS011;38721;53.098;6.596;2023-11-18T13:14:29;49.20;;;24.60;;
52858;SDS011;38721;53.098;6.596;2023-11-18T13:17:01;38.53;;;22.85;;
52858;SDS011;38721;53.098;6.596;2023-11-18T13:19:30;37.63;;;22.98;;
52858;SDS011;38721;53.098;6.596;2023-11-18T13:22:03;43.00;;;22.75;;
52858;SDS011;38721;53.098;6.596;2023-11-18T13:24:33;46.60;;;23.02;;
52858;SDS011;38721;53.098;6.596;2023-11-18T13:27:06;39.60;;;22.13;;
52858;SDS011;38721;53.098;6.596;2023-11-18T13:29:37;36.28;;;22.52;;
52858;SDS011;38721;53.098;6.596;2023-11-18T13:32:06;37.97;;;22.02;;
52858;SDS011;38721;53.098;6.596;2023-11-18T13:34:35;36.90;;;21.52;;
52858;SDS011;38721;53.098;6.596;2023-11-18T13:37:05;43.88;;;22.85;;
52858;SDS011;38721;53.098;6.596;2023-11-18T13:39:32;39.45;;;22.40;;
52858;SDS011;38721;53.098;6.596;2023-11-18T13:41:58;34.83;;;21.15;;
52858;SDS011;38721;53.098;6.596;2023-11-18T13:47:12;35.58;;;20.48;;
52858;SDS011;38721;53.098;6.596;2023-11-18T13:49:38;35.97;;;21.17;;
52858;SDS011;38721;53.098;6.596;2023-11-18T13:52:07;37.92;;;21.05;;
52858;SDS011;38721;53.098;6.596;2023-11-18T13:54:35;38.45;;;20.17;;
52858;SDS011;38721;53.098;6.596;2023-11-18T13:57:02;36.35;;;20.83;;
52858;SDS011;38721;53.098;6.596;2023-11-18T13:59:29;32.45;;;19.65;;
52858;SDS011;38721;53.098;6.596;2023-11-18T14:01:55;32.28;;;19.02;;
52858;SDS011;38721;53.098;6.596;2023-11-18T14:04:33;31.50;;;18.67;;
52858;SDS011;38721;53.098;6.596;2023-11-18T14:07:00;34.78;;;19.17;;
52858;SDS011;38721;53.098;6.596;2023-11-18T14:09:34;33.25;;;19.15;;
52858;SDS011;38721;53.098;6.596;2023-11-18T14:12:07;28.48;;;18.33;;
52858;SDS011;38721;53.098;6.596;2023-11-18T14:14:34;33.78;;;18.35;;
52858;SDS011;38721;53.098;6.596;2023-11-18T14:16:59;27.40;;;16.67;;
52858;SDS011;38721;53.098;6.596;2023-11-18T14:19:26;31.10;;;18.02;;
52858;SDS011;38721;53.098;6.596;2023-11-18T14:21:55;33.90;;;18.92;;
52858;SDS011;38721;53.098;6.596;2023-11-18T14:24:21;29.25;;;18.42;;
52858;SDS011;38721;53.098;6.596;2023-11-18T14:26:53;29.52;;;17.73;;
52858;SDS011;38721;53.098;6.596;2023-11-18T14:29:20;29.45;;;17.45;;
52858;SDS011;38721;53.098;6.596;2023-11-18T14:31:47;27.15;;;16.73;;
52858;SDS011;38721;53.098;6.596;2023-11-18T14:34:14;30.65;;;18.65;;
52858;SDS011;38721;53.098;6.596;2023-11-18T14:36:40;29.27;;;17.40;;
52858;SDS011;38721;53.098;6.596;2023-11-18T14:39:06;31.13;;;18.95;;
52858;SDS011;38721;53.098;6.596;2023-11-18T14:41:35;33.28;;;18.90;;
52858;SDS011;38721;53.098;6.596;2023-11-18T14:44:01;33.67;;;19.15;;
52858;SDS011;38721;53.098;6.596;2023-11-18T14:46:29;31.17;;;19.38;;
52858;SDS011;38721;53.098;6.596;2023-11-18T14:48:58;30.92;;;19.73;;
52858;SDS011;38721;53.098;6.596;2023-11-18T14:51:24;31.88;;;19.42;;
52858;SDS011;38721;53.098;6.596;2023-11-18T14:53:50;32.42;;;20.02;;
52858;SDS011;38721;53.098;6.596;2023-11-18T14:56:16;29.98;;;18.65;;